sensor_id;sensor_type;location;lat;lon;timestamp;temperature;humidity
43185;DHT22;28803;52.308;19.096;2023-07-31T00:00:53;16.40;99.90
43185;DHT22;28803;52.308;19.096;2023-07-31T00:03:26;16.40;99.90
43185;DHT22;28803;52.308;19.096;2023-07-31T00:05:53;16.30;99.90
43185;DHT22;28803;52.308;19.096;2023-07-31T00:08:21;16.30;99.90
43185;DHT22;28803;52.308;19.096;2023-07-31T00:10:51;16.30;99.90
43185;DHT22;28803;52.308;19.096;2023-07-31T00:13:19;16.30;99.90
43185;DHT22;28803;52.308;19.096;2023-07-31T00:15:47;16.20;99.90
43185;DHT22;28803;52.308;19.096;2023-07-31T00:18:15;16.20;99.90
43185;DHT22;28803;52.308;19.096;2023-07-31T00:20:42;16.20;99.90
43185;DHT22;28803;52.308;19.096;2023-07-31T00:23:10;16.10;99.90
43185;DHT22;28803;52.308;19.096;2023-07-31T00:25:39;16.10;99.90
43185;DHT22;28803;52.308;19.096;2023-07-31T00:28:07;16.10;99.90
43185;DHT22;28803;52.308;19.096;2023-07-31T00:30:34;16.10;99.90
43185;DHT22;28803;52.308;19.096;2023-07-31T00:33:01;15.90;99.90
43185;DHT22;28803;52.308;19.096;2023-07-31T00:35:29;15.90;99.90
43185;DHT22;28803;52.308;19.096;2023-07-31T00:37:57;15.90;99.90
43185;DHT22;28803;52.308;19.096;2023-07-31T00:40:24;15.80;99.90
43185;DHT22;28803;52.308;19.096;2023-07-31T00:42:52;15.80;99.90
43185;DHT22;28803;52.308;19.096;2023-07-31T00:45:19;15.70;99.90
43185;DHT22;28803;52.308;19.096;2023-07-31T00:47:48;15.80;99.90
43185;DHT22;28803;52.308;19.096;2023-07-31T00:50:15;15.90;99.90
43185;DHT22;28803;52.308;19.096;2023-07-31T00:52:43;16.20;99.90
43185;DHT22;28803;52.308;19.096;2023-07-31T00:55:11;16.20;99.90
43185;DHT22;28803;52.308;19.096;2023-07-31T00:57:39;16.30;99.90
43185;DHT22;28803;52.308;19.096;2023-07-31T01:00:08;16.30;99.90
43185;DHT22;28803;52.308;19.096;2023-07-31T01:02:36;16.50;99.90
43185;DHT22;28803;52.308;19.096;2023-07-31T01:05:04;16.50;99.90
43185;DHT22;28803;52.308;19.096;2023-07-31T01:10:19;16.60;99.90
43185;DHT22;28803;52.308;19.096;2023-07-31T01:12:48;16.60;99.90
43185;DHT22;28803;52.308;19.096;2023-07-31T01:15:17;16.50;99.90
43185;DHT22;28803;52.308;19.096;2023-07-31T01:17:45;16.50;99.90
43185;DHT22;28803;52.308;19.096;2023-07-31T01:20:16;16.50;99.90
43185;DHT22;28803;52.308;19.096;2023-07-31T01:28:14;16.40;99.90
43185;DHT22;28803;52.308;19.096;2023-07-31T01:30:48;16.40;99.90
43185;DHT22;28803;52.308;19.096;2023-07-31T01:33:16;16.30;99.90
43185;DHT22;28803;52.308;19.096;2023-07-31T01:35:48;16.30;99.90
43185;DHT22;28803;52.308;19.096;2023-07-31T01:38:20;16.30;99.90
43185;DHT22;28803;52.308;19.096;2023-07-31T01:40:52;16.30;98.40
43185;DHT22;28803;52.308;19.096;2023-07-31T01:43:20;16.30;67.50
43185;DHT22;28803;52.308;19.096;2023-07-31T01:45:47;16.30;56.00
43185;DHT22;28803;52.308;19.096;2023-07-31T01:48:14;16.30;36.50
43185;DHT22;28803;52.308;19.096;2023-07-31T01:50:41;16.30;21.60
43185;DHT22;28803;52.308;19.096;2023-07-31T01:53:09;16.30;7.00
43185;DHT22;28803;52.308;19.096;2023-07-31T01:55:36;16.30;1.00
43185;DHT22;28803;52.308;19.096;2023-07-31T01:58:04;16.30;1.00
43185;DHT22;28803;52.308;19.096;2023-07-31T02:00:31;16.40;1.00
43185;DHT22;28803;52.308;19.096;2023-07-31T02:02:59;16.40;1.00
43185;DHT22;28803;52.308;19.096;2023-07-31T02:05:27;16.40;1.00
43185;DHT22;28803;52.308;19.096;2023-07-31T02:07:55;16.30;1.00
43185;DHT22;28803;52.308;19.096;2023-07-31T02:10:22;16.30;1.00
43185;DHT22;28803;52.308;19.096;2023-07-31T02:12:50;16.30;1.00
43185;DHT22;28803;52.308;19.096;2023-07-31T02:15:17;16.30;1.00
43185;DHT22;28803;52.308;19.096;2023-07-31T02:17:46;16.30;1.00
43185;DHT22;28803;52.308;19.096;2023-07-31T02:20:13;16.30;1.00
43185;DHT22;28803;52.308;19.096;2023-07-31T02:22:40;16.40;1.00
43185;DHT22;28803;52.308;19.096;2023-07-31T02:25:08;16.40;1.00
43185;DHT22;28803;52.308;19.096;2023-07-31T02:27:36;16.30;1.00
43185;DHT22;28803;52.308;19.096;2023-07-31T02:30:03;16.30;1.00
43185;DHT22;28803;52.308;19.096;2023-07-31T02:32:31;16.30;1.00
43185;DHT22;28803;52.308;19.096;2023-07-31T02:34:58;16.30;1.00
43185;DHT22;28803;52.308;19.096;2023-07-31T02:37:26;16.30;1.00
43185;DHT22;28803;52.308;19.096;2023-07-31T02:39:55;16.30;1.00
43185;DHT22;28803;52.308;19.096;2023-07-31T02:42:22;16.10;1.00
43185;DHT22;28803;52.308;19.096;2023-07-31T02:44:50;16.00;1.00
43185;DHT22;28803;52.308;19.096;2023-07-31T02:47:22;16.00;1.00
43185;DHT22;28803;52.308;19.096;2023-07-31T02:49:49;15.90;1.00
43185;DHT22;28803;52.308;19.096;2023-07-31T02:52:17;15.70;23.70
43185;DHT22;28803;52.308;19.096;2023-07-31T02:54:44;15.70;12.90
43185;DHT22;28803;52.308;19.096;2023-07-31T02:57:11;15.60;46.90
43185;DHT22;28803;52.308;19.096;2023-07-31T02:59:39;15.60;87.60
43185;DHT22;28803;52.308;19.096;2023-07-31T03:02:06;15.60;99.90
43185;DHT22;28803;52.308;19.096;2023-07-31T03:04:33;15.60;94.90
43185;DHT22;28803;52.308;19.096;2023-07-31T03:07:00;15.60;99.90
43185;DHT22;28803;52.308;19.096;2023-07-31T03:09:31;15.60;99.90
43185;DHT22;28803;52.308;19.096;2023-07-31T03:11:58;15.60;99.90
43185;DHT22;28803;52.308;19.096;2023-07-31T03:14:25;15.50;99.90
43185;DHT22;28803;52.308;19.096;2023-07-31T03:16:56;15.50;99.90
43185;DHT22;28803;52.308;19.096;2023-07-31T03:19:23;15.50;99.90
43185;DHT22;28803;52.308;19.096;2023-07-31T03:21:50;15.50;99.90
43185;DHT22;28803;52.308;19.096;2023-07-31T03:24:17;15.40;99.90
43185;DHT22;28803;52.308;19.096;2023-07-31T03:26:45;15.50;99.90
43185;DHT22;28803;52.308;19.096;2023-07-31T03:29:12;15.50;99.90
43185;DHT22;28803;52.308;19.096;2023-07-31T03:31:39;15.40;99.90
43185;DHT22;28803;52.308;19.096;2023-07-31T03:34:07;15.40;99.90
43185;DHT22;28803;52.308;19.096;2023-07-31T03:36:34;15.50;99.90
43185;DHT22;28803;52.308;19.096;2023-07-31T03:39:01;15.60;99.90
43185;DHT22;28803;52.308;19.096;2023-07-31T03:41:28;15.60;99.90
43185;DHT22;28803;52.308;19.096;2023-07-31T03:43:55;15.70;99.90
43185;DHT22;28803;52.308;19.096;2023-07-31T03:46:24;15.70;99.90
43185;DHT22;28803;52.308;19.096;2023-07-31T03:48:51;15.70;99.90
43185;DHT22;28803;52.308;19.096;2023-07-31T03:51:19;15.80;99.90
43185;DHT22;28803;52.308;19.096;2023-07-31T03:53:46;15.90;99.90
43185;DHT22;28803;52.308;19.096;2023-07-31T03:56:14;15.90;99.90
43185;DHT22;28803;52.308;19.096;2023-07-31T03:58:41;15.90;89.40
43185;DHT22;28803;52.308;19.096;2023-07-31T04:01:08;15.90;64.30
43185;DHT22;28803;52.308;19.096;2023-07-31T04:03:35;15.90;73.40
43185;DHT22;28803;52.308;19.096;2023-07-31T04:06:03;15.90;82.90
43185;DHT22;28803;52.308;19.096;2023-07-31T04:08:30;15.90;92.90
43185;DHT22;28803;52.308;19.096;2023-07-31T04:10:58;16.00;99.00
43185;DHT22;28803;52.308;19.096;2023-07-31T04:13:25;16.10;87.50
43185;DHT22;28803;52.308;19.096;2023-07-31T04:15:54;16.20;78.60
43185;DHT22;28803;52.308;19.096;2023-07-31T04:18:24;16.20;76.10
43185;DHT22;28803;52.308;19.096;2023-07-31T04:20:51;16.30;78.60
43185;DHT22;28803;52.308;19.096;2023-07-31T04:23:19;16.50;37.90
43185;DHT22;28803;52.308;19.096;2023-07-31T04:25:46;16.60;26.20
43185;DHT22;28803;52.308;19.096;2023-07-31T04:28:14;16.80;1.00
43185;DHT22;28803;52.308;19.096;2023-07-31T04:30:41;16.80;1.00
43185;DHT22;28803;52.308;19.096;2023-07-31T04:33:09;17.00;1.00
43185;DHT22;28803;52.308;19.096;2023-07-31T04:35:36;17.00;1.00
43185;DHT22;28803;52.308;19.096;2023-07-31T04:38:03;17.10;1.00
43185;DHT22;28803;52.308;19.096;2023-07-31T04:40:31;17.10;1.00
43185;DHT22;28803;52.308;19.096;2023-07-31T04:42:58;17.10;1.00
43185;DHT22;28803;52.308;19.096;2023-07-31T04:45:26;17.10;1.00
43185;DHT22;28803;52.308;19.096;2023-07-31T04:47:53;17.10;1.00
43185;DHT22;28803;52.308;19.096;2023-07-31T04:50:21;17.10;1.00
43185;DHT22;28803;52.308;19.096;2023-07-31T04:52:48;17.10;1.00
43185;DHT22;28803;52.308;19.096;2023-07-31T04:55:15;17.10;1.00
43185;DHT22;28803;52.308;19.096;2023-07-31T04:57:42;17.20;1.00
43185;DHT22;28803;52.308;19.096;2023-07-31T05:00:11;17.20;1.00
43185;DHT22;28803;52.308;19.096;2023-07-31T05:02:38;17.40;99.90
43185;DHT22;28803;52.308;19.096;2023-07-31T05:05:06;17.40;99.90
43185;DHT22;28803;52.308;19.096;2023-07-31T05:07:33;17.50;99.90
43185;DHT22;28803;52.308;19.096;2023-07-31T05:10:01;17.60;99.90
43185;DHT22;28803;52.308;19.096;2023-07-31T05:12:28;17.60;99.90
43185;DHT22;28803;52.308;19.096;2023-07-31T05:14:56;17.60;99.90
43185;DHT22;28803;52.308;19.096;2023-07-31T05:17:23;17.60;99.90
43185;DHT22;28803;52.308;19.096;2023-07-31T05:19:51;17.60;99.90
43185;DHT22;28803;52.308;19.096;2023-07-31T05:22:18;17.60;99.90
43185;DHT22;28803;52.308;19.096;2023-07-31T05:24:46;17.60;99.90
43185;DHT22;28803;52.308;19.096;2023-07-31T05:27:13;17.60;99.90
43185;DHT22;28803;52.308;19.096;2023-07-31T05:29:42;17.60;99.90
43185;DHT22;28803;52.308;19.096;2023-07-31T05:32:09;17.60;99.90
43185;DHT22;28803;52.308;19.096;2023-07-31T05:34:36;17.60;99.90
43185;DHT22;28803;52.308;19.096;2023-07-31T05:37:04;17.80;99.90
43185;DHT22;28803;52.308;19.096;2023-07-31T05:39:33;17.90;99.90
43185;DHT22;28803;52.308;19.096;2023-07-31T05:42:00;18.10;99.90
43185;DHT22;28803;52.308;19.096;2023-07-31T05:44:27;18.30;99.90
43185;DHT22;28803;52.308;19.096;2023-07-31T05:46:54;18.50;1.00
43185;DHT22;28803;52.308;19.096;2023-07-31T05:49:22;18.70;1.00
43185;DHT22;28803;52.308;19.096;2023-07-31T05:51:49;18.80;1.00
43185;DHT22;28803;52.308;19.096;2023-07-31T05:54:17;18.80;1.00
43185;DHT22;28803;52.308;19.096;2023-07-31T05:56:44;18.70;1.00
43185;DHT22;28803;52.308;19.096;2023-07-31T05:59:12;18.60;99.90
43185;DHT22;28803;52.308;19.096;2023-07-31T06:01:40;18.60;1.00
43185;DHT22;28803;52.308;19.096;2023-07-31T06:04:07;18.60;99.90
43185;DHT22;28803;52.308;19.096;2023-07-31T06:06:35;18.60;99.90
43185;DHT22;28803;52.308;19.096;2023-07-31T06:09:03;18.70;99.90
43185;DHT22;28803;52.308;19.096;2023-07-31T06:11:30;18.80;99.90
43185;DHT22;28803;52.308;19.096;2023-07-31T06:13:58;18.90;99.90
43185;DHT22;28803;52.308;19.096;2023-07-31T06:16:26;19.00;99.90
43185;DHT22;28803;52.308;19.096;2023-07-31T06:18:54;19.30;99.90
43185;DHT22;28803;52.308;19.096;2023-07-31T06:21:21;19.50;99.90
43185;DHT22;28803;52.308;19.096;2023-07-31T06:23:49;20.00;67.10
43185;DHT22;28803;52.308;19.096;2023-07-31T06:26:16;20.10;1.00
43185;DHT22;28803;52.308;19.096;2023-07-31T06:28:44;20.30;99.90
43185;DHT22;28803;52.308;19.096;2023-07-31T06:31:11;20.30;99.90
43185;DHT22;28803;52.308;19.096;2023-07-31T06:33:38;20.70;99.90
43185;DHT22;28803;52.308;19.096;2023-07-31T06:36:06;20.80;99.90
43185;DHT22;28803;52.308;19.096;2023-07-31T06:38:33;20.70;99.90
43185;DHT22;28803;52.308;19.096;2023-07-31T06:41:00;20.50;99.90
43185;DHT22;28803;52.308;19.096;2023-07-31T06:43:28;20.40;99.90
43185;DHT22;28803;52.308;19.096;2023-07-31T06:48:23;20.80;99.90
43185;DHT22;28803;52.308;19.096;2023-07-31T06:50:50;21.30;99.90
43185;DHT22;28803;52.308;19.096;2023-07-31T06:53:18;21.60;1.00
43185;DHT22;28803;52.308;19.096;2023-07-31T06:55:46;22.00;37.30
43185;DHT22;28803;52.308;19.096;2023-07-31T06:58:15;22.90;99.90
43185;DHT22;28803;52.308;19.096;2023-07-31T07:00:42;23.40;99.90
43185;DHT22;28803;52.308;19.096;2023-07-31T07:03:22;23.60;1.70
43185;DHT22;28803;52.308;19.096;2023-07-31T07:05:49;23.70;1.00
43185;DHT22;28803;52.308;19.096;2023-07-31T07:08:17;24.20;99.90
43185;DHT22;28803;52.308;19.096;2023-07-31T07:10:44;24.50;99.90
43185;DHT22;28803;52.308;19.096;2023-07-31T07:13:12;24.70;99.90
43185;DHT22;28803;52.308;19.096;2023-07-31T07:15:40;24.60;99.90
43185;DHT22;28803;52.308;19.096;2023-07-31T07:18:08;24.70;99.90
43185;DHT22;28803;52.308;19.096;2023-07-31T07:20:37;24.90;99.90
43185;DHT22;28803;52.308;19.096;2023-07-31T07:23:05;24.50;99.90
43185;DHT22;28803;52.308;19.096;2023-07-31T07:25:32;24.30;99.90
43185;DHT22;28803;52.308;19.096;2023-07-31T07:28:00;23.90;99.90
43185;DHT22;28803;52.308;19.096;2023-07-31T07:30:27;23.70;99.90
43185;DHT22;28803;52.308;19.096;2023-07-31T07:32:55;23.50;99.90
43185;DHT22;28803;52.308;19.096;2023-07-31T07:35:23;23.50;99.90
43185;DHT22;28803;52.308;19.096;2023-07-31T07:37:50;23.50;99.90
43185;DHT22;28803;52.308;19.096;2023-07-31T07:40:19;23.60;84.80
43185;DHT22;28803;52.308;19.096;2023-07-31T07:42:47;23.90;99.90
43185;DHT22;28803;52.308;19.096;2023-07-31T07:45:14;23.90;99.90
43185;DHT22;28803;52.308;19.096;2023-07-31T07:47:42;23.80;99.90
43185;DHT22;28803;52.308;19.096;2023-07-31T07:50:09;24.20;99.90
43185;DHT22;28803;52.308;19.096;2023-07-31T07:52:37;25.20;99.90
43185;DHT22;28803;52.308;19.096;2023-07-31T07:55:04;26.50;99.90
43185;DHT22;28803;52.308;19.096;2023-07-31T07:57:32;27.60;99.90
43185;DHT22;28803;52.308;19.096;2023-07-31T07:59:59;28.40;1.00
43185;DHT22;28803;52.308;19.096;2023-07-31T08:02:28;28.80;1.00
43185;DHT22;28803;52.308;19.096;2023-07-31T08:04:55;28.90;1.00
43185;DHT22;28803;52.308;19.096;2023-07-31T08:07:23;28.70;1.60
43185;DHT22;28803;52.308;19.096;2023-07-31T08:09:50;28.50;1.00
43185;DHT22;28803;52.308;19.096;2023-07-31T08:12:17;29.40;58.50
43185;DHT22;28803;52.308;19.096;2023-07-31T08:14:44;29.40;44.40
43185;DHT22;28803;52.308;19.096;2023-07-31T08:17:12;29.20;4.60
43185;DHT22;28803;52.308;19.096;2023-07-31T08:19:39;28.70;1.00
43185;DHT22;28803;52.308;19.096;2023-07-31T08:22:07;28.00;1.00
43185;DHT22;28803;52.308;19.096;2023-07-31T08:24:34;27.90;1.00
43185;DHT22;28803;52.308;19.096;2023-07-31T08:27:01;27.90;1.00
43185;DHT22;28803;52.308;19.096;2023-07-31T08:29:28;28.20;1.00
43185;DHT22;28803;52.308;19.096;2023-07-31T08:31:56;28.50;1.00
43185;DHT22;28803;52.308;19.096;2023-07-31T08:34:23;29.00;1.00
43185;DHT22;28803;52.308;19.096;2023-07-31T08:36:50;29.70;1.00
43185;DHT22;28803;52.308;19.096;2023-07-31T08:39:17;29.90;18.20
43185;DHT22;28803;52.308;19.096;2023-07-31T08:41:45;29.70;30.00
43185;DHT22;28803;52.308;19.096;2023-07-31T08:44:12;29.50;5.40
43185;DHT22;28803;52.308;19.096;2023-07-31T08:46:41;29.60;1.00
43185;DHT22;28803;52.308;19.096;2023-07-31T08:49:10;29.40;5.10
43185;DHT22;28803;52.308;19.096;2023-07-31T08:51:38;29.00;5.00
43185;DHT22;28803;52.308;19.096;2023-07-31T08:54:06;28.60;3.40
43185;DHT22;28803;52.308;19.096;2023-07-31T08:56:34;28.60;1.00
43185;DHT22;28803;52.308;19.096;2023-07-31T08:59:02;28.50;1.00
43185;DHT22;28803;52.308;19.096;2023-07-31T09:01:36;28.60;1.00
43185;DHT22;28803;52.308;19.096;2023-07-31T09:04:07;28.20;1.00
43185;DHT22;28803;52.308;19.096;2023-07-31T09:06:35;27.80;1.00
43185;DHT22;28803;52.308;19.096;2023-07-31T09:09:04;27.40;1.00
43185;DHT22;28803;52.308;19.096;2023-07-31T09:11:32;27.20;1.00
43185;DHT22;28803;52.308;19.096;2023-07-31T09:14:00;27.10;1.00
43185;DHT22;28803;52.308;19.096;2023-07-31T09:16:57;27.00;1.00
43185;DHT22;28803;52.308;19.096;2023-07-31T09:19:33;27.40;1.00
43185;DHT22;28803;52.308;19.096;2023-07-31T09:22:01;27.50;1.00
43185;DHT22;28803;52.308;19.096;2023-07-31T09:24:29;28.50;1.00
43185;DHT22;28803;52.308;19.096;2023-07-31T09:26:59;28.20;1.00
43185;DHT22;28803;52.308;19.096;2023-07-31T09:29:28;28.10;1.00
43185;DHT22;28803;52.308;19.096;2023-07-31T09:31:57;28.10;1.00
43185;DHT22;28803;52.308;19.096;2023-07-31T09:34:37;28.10;1.00
43185;DHT22;28803;52.308;19.096;2023-07-31T09:37:08;28.50;1.00
43185;DHT22;28803;52.308;19.096;2023-07-31T09:39:46;28.90;1.00
43185;DHT22;28803;52.308;19.096;2023-07-31T09:42:14;28.90;1.00
43185;DHT22;28803;52.308;19.096;2023-07-31T09:44:50;28.90;1.00
43185;DHT22;28803;52.308;19.096;2023-07-31T09:47:22;29.00;1.00
43185;DHT22;28803;52.308;19.096;2023-07-31T09:49:53;29.20;1.00
43185;DHT22;28803;52.308;19.096;2023-07-31T09:52:21;29.90;1.00
43185;DHT22;28803;52.308;19.096;2023-07-31T09:54:49;30.00;1.00
43185;DHT22;28803;52.308;19.096;2023-07-31T09:57:17;30.80;7.20
43185;DHT22;28803;52.308;19.096;2023-07-31T09:59:47;31.90;16.30
43185;DHT22;28803;52.308;19.096;2023-07-31T10:02:23;33.20;81.70
43185;DHT22;28803;52.308;19.096;2023-07-31T10:04:50;33.30;93.70
43185;DHT22;28803;52.308;19.096;2023-07-31T10:07:20;33.40;83.60
43185;DHT22;28803;52.308;19.096;2023-07-31T10:09:49;33.20;73.60
43185;DHT22;28803;52.308;19.096;2023-07-31T10:12:19;34.20;99.90
43185;DHT22;28803;52.308;19.096;2023-07-31T10:14:49;34.00;99.90
43185;DHT22;28803;52.308;19.096;2023-07-31T10:17:18;33.50;99.90
43185;DHT22;28803;52.308;19.096;2023-07-31T10:19:53;31.70;99.90
43185;DHT22;28803;52.308;19.096;2023-07-31T10:22:21;28.40;98.00
43185;DHT22;28803;52.308;19.096;2023-07-31T10:24:48;28.20;97.80
43185;DHT22;28803;52.308;19.096;2023-07-31T10:27:17;27.40;80.80
43185;DHT22;28803;52.308;19.096;2023-07-31T10:29:45;26.80;62.80
43185;DHT22;28803;52.308;19.096;2023-07-31T10:32:17;25.90;1.00
43185;DHT22;28803;52.308;19.096;2023-07-31T10:34:44;25.80;1.00
43185;DHT22;28803;52.308;19.096;2023-07-31T10:37:27;25.60;1.00
43185;DHT22;28803;52.308;19.096;2023-07-31T10:40:06;25.30;1.00
43185;DHT22;28803;52.308;19.096;2023-07-31T10:42:47;25.20;1.00
43185;DHT22;28803;52.308;19.096;2023-07-31T10:45:31;25.10;1.00
43185;DHT22;28803;52.308;19.096;2023-07-31T10:48:19;25.00;1.00
43185;DHT22;28803;52.308;19.096;2023-07-31T10:50:51;24.60;1.00
43185;DHT22;28803;52.308;19.096;2023-07-31T10:53:29;24.30;99.90
43185;DHT22;28803;52.308;19.096;2023-07-31T10:56:01;24.40;99.90
43185;DHT22;28803;52.308;19.096;2023-07-31T10:58:29;24.40;99.90
43185;DHT22;28803;52.308;19.096;2023-07-31T11:01:01;24.60;99.90
43185;DHT22;28803;52.308;19.096;2023-07-31T11:06:10;25.00;99.90
43185;DHT22;28803;52.308;19.096;2023-07-31T11:08:45;25.00;99.90
43185;DHT22;28803;52.308;19.096;2023-07-31T11:11:14;24.90;99.90
43185;DHT22;28803;52.308;19.096;2023-07-31T11:13:52;25.30;99.90
43185;DHT22;28803;52.308;19.096;2023-07-31T11:16:24;25.30;99.90
43185;DHT22;28803;52.308;19.096;2023-07-31T11:18:53;25.30;99.90
43185;DHT22;28803;52.308;19.096;2023-07-31T11:21:24;25.10;99.90
43185;DHT22;28803;52.308;19.096;2023-07-31T11:23:56;24.60;99.90
43185;DHT22;28803;52.308;19.096;2023-07-31T11:26:27;24.50;99.90
43185;DHT22;28803;52.308;19.096;2023-07-31T11:28:55;24.30;99.90
43185;DHT22;28803;52.308;19.096;2023-07-31T11:31:22;24.40;99.90
43185;DHT22;28803;52.308;19.096;2023-07-31T11:33:50;24.40;99.90
43185;DHT22;28803;52.308;19.096;2023-07-31T11:36:19;24.40;99.90
43185;DHT22;28803;52.308;19.096;2023-07-31T11:38:47;24.20;99.90
43185;DHT22;28803;52.308;19.096;2023-07-31T11:41:15;23.70;99.90
43185;DHT22;28803;52.308;19.096;2023-07-31T11:43:46;23.40;91.70
43185;DHT22;28803;52.308;19.096;2023-07-31T11:46:14;23.30;45.60
43185;DHT22;28803;52.308;19.096;2023-07-31T11:48:43;23.20;1.00
43185;DHT22;28803;52.308;19.096;2023-07-31T11:51:11;23.10;1.00
43185;DHT22;28803;52.308;19.096;2023-07-31T11:53:45;23.20;99.90
43185;DHT22;28803;52.308;19.096;2023-07-31T11:56:17;23.30;99.90
43185;DHT22;28803;52.308;19.096;2023-07-31T11:58:47;23.40;99.90
43185;DHT22;28803;52.308;19.096;2023-07-31T12:01:19;23.50;99.90
43185;DHT22;28803;52.308;19.096;2023-07-31T12:03:49;23.60;99.90
43185;DHT22;28803;52.308;19.096;2023-07-31T12:06:17;23.70;99.90
43185;DHT22;28803;52.308;19.096;2023-07-31T12:08:45;24.20;99.90
43185;DHT22;28803;52.308;19.096;2023-07-31T12:11:12;24.70;99.90
43185;DHT22;28803;52.308;19.096;2023-07-31T12:13:42;24.80;99.90
43185;DHT22;28803;52.308;19.096;2023-07-31T12:16:09;24.60;99.90
43185;DHT22;28803;52.308;19.096;2023-07-31T12:18:37;24.30;99.90
43185;DHT22;28803;52.308;19.096;2023-07-31T12:21:07;23.80;99.90
43185;DHT22;28803;52.308;19.096;2023-07-31T12:23:37;23.80;99.90
43185;DHT22;28803;52.308;19.096;2023-07-31T12:26:17;24.00;99.90
43185;DHT22;28803;52.308;19.096;2023-07-31T12:28:47;23.90;99.90
43185;DHT22;28803;52.308;19.096;2023-07-31T12:31:20;23.70;99.90
43185;DHT22;28803;52.308;19.096;2023-07-31T12:33:50;23.50;99.90
43185;DHT22;28803;52.308;19.096;2023-07-31T12:36:23;23.50;99.90
43185;DHT22;28803;52.308;19.096;2023-07-31T12:38:52;23.60;99.90
43185;DHT22;28803;52.308;19.096;2023-07-31T12:41:19;23.70;99.90
43185;DHT22;28803;52.308;19.096;2023-07-31T12:43:47;24.40;99.90
43185;DHT22;28803;52.308;19.096;2023-07-31T12:46:14;24.80;99.90
43185;DHT22;28803;52.308;19.096;2023-07-31T12:48:43;24.90;99.90
43185;DHT22;28803;52.308;19.096;2023-07-31T12:51:10;24.80;99.90
43185;DHT22;28803;52.308;19.096;2023-07-31T12:53:38;24.20;99.90
43185;DHT22;28803;52.308;19.096;2023-07-31T12:56:05;24.00;99.90
43185;DHT22;28803;52.308;19.096;2023-07-31T12:58:32;23.60;99.90
43185;DHT22;28803;52.308;19.096;2023-07-31T13:01:00;23.30;99.90
43185;DHT22;28803;52.308;19.096;2023-07-31T13:03:29;23.20;99.90
43185;DHT22;28803;52.308;19.096;2023-07-31T13:05:57;22.80;21.40
43185;DHT22;28803;52.308;19.096;2023-07-31T13:08:24;22.80;33.40
43185;DHT22;28803;52.308;19.096;2023-07-31T13:10:51;22.40;1.00
43185;DHT22;28803;52.308;19.096;2023-07-31T13:13:19;21.50;40.40
43185;DHT22;28803;52.308;19.096;2023-07-31T13:15:46;21.30;1.20
43185;DHT22;28803;52.308;19.096;2023-07-31T13:18:14;21.00;1.00
43185;DHT22;28803;52.308;19.096;2023-07-31T13:20:41;20.90;1.00
43185;DHT22;28803;52.308;19.096;2023-07-31T13:23:09;21.70;99.90
43185;DHT22;28803;52.308;19.096;2023-07-31T13:25:36;21.90;99.90
43185;DHT22;28803;52.308;19.096;2023-07-31T13:28:04;22.20;1.00
43185;DHT22;28803;52.308;19.096;2023-07-31T13:30:31;22.30;1.00
43185;DHT22;28803;52.308;19.096;2023-07-31T13:32:59;22.30;1.00
43185;DHT22;28803;52.308;19.096;2023-07-31T13:35:26;22.20;1.00
43185;DHT22;28803;52.308;19.096;2023-07-31T13:37:54;21.90;8.40
43185;DHT22;28803;52.308;19.096;2023-07-31T13:40:22;21.70;94.80
43185;DHT22;28803;52.308;19.096;2023-07-31T13:42:49;21.60;99.90
43185;DHT22;28803;52.308;19.096;2023-07-31T13:45:17;21.60;99.90
43185;DHT22;28803;52.308;19.096;2023-07-31T13:47:44;21.70;99.90
43185;DHT22;28803;52.308;19.096;2023-07-31T13:50:11;21.60;1.00
43185;DHT22;28803;52.308;19.096;2023-07-31T13:52:39;21.80;91.40
43185;DHT22;28803;52.308;19.096;2023-07-31T13:55:07;21.90;1.00
43185;DHT22;28803;52.308;19.096;2023-07-31T13:57:35;22.30;1.00
43185;DHT22;28803;52.308;19.096;2023-07-31T14:00:02;22.70;99.90
43185;DHT22;28803;52.308;19.096;2023-07-31T14:02:30;22.90;99.90
43185;DHT22;28803;52.308;19.096;2023-07-31T14:04:57;22.90;99.90
43185;DHT22;28803;52.308;19.096;2023-07-31T14:07:24;23.10;99.90
43185;DHT22;28803;52.308;19.096;2023-07-31T14:09:51;23.00;12.00
43185;DHT22;28803;52.308;19.096;2023-07-31T14:12:19;22.70;1.00
43185;DHT22;28803;52.308;19.096;2023-07-31T14:15:07;22.70;1.00
43185;DHT22;28803;52.308;19.096;2023-07-31T14:17:35;22.50;1.00
43185;DHT22;28803;52.308;19.096;2023-07-31T14:20:03;22.80;32.80
43185;DHT22;28803;52.308;19.096;2023-07-31T14:22:31;25.20;99.90
43185;DHT22;28803;52.308;19.096;2023-07-31T14:25:01;25.20;99.90
43185;DHT22;28803;52.308;19.096;2023-07-31T14:27:28;25.30;99.90
43185;DHT22;28803;52.308;19.096;2023-07-31T14:29:56;24.90;99.90
43185;DHT22;28803;52.308;19.096;2023-07-31T14:32:23;24.00;99.90
43185;DHT22;28803;52.308;19.096;2023-07-31T14:34:52;23.90;99.90
43185;DHT22;28803;52.308;19.096;2023-07-31T14:37:21;23.70;99.90
43185;DHT22;28803;52.308;19.096;2023-07-31T14:39:48;23.60;99.90
43185;DHT22;28803;52.308;19.096;2023-07-31T14:42:18;23.80;99.90
43185;DHT22;28803;52.308;19.096;2023-07-31T14:44:46;23.80;99.90
43185;DHT22;28803;52.308;19.096;2023-07-31T14:47:14;23.90;99.90
43185;DHT22;28803;52.308;19.096;2023-07-31T14:49:41;23.90;99.90
43185;DHT22;28803;52.308;19.096;2023-07-31T14:52:09;24.00;99.90
43185;DHT22;28803;52.308;19.096;2023-07-31T14:54:37;24.00;99.90
43185;DHT22;28803;52.308;19.096;2023-07-31T14:57:04;24.00;99.90
43185;DHT22;28803;52.308;19.096;2023-07-31T14:59:32;23.70;99.90
43185;DHT22;28803;52.308;19.096;2023-07-31T15:01:59;23.50;99.90
43185;DHT22;28803;52.308;19.096;2023-07-31T15:04:26;23.30;99.90
43185;DHT22;28803;52.308;19.096;2023-07-31T15:06:55;22.70;99.90
43185;DHT22;28803;52.308;19.096;2023-07-31T15:09:22;22.70;99.90
43185;DHT22;28803;52.308;19.096;2023-07-31T15:11:49;22.40;99.90
43185;DHT22;28803;52.308;19.096;2023-07-31T15:14:17;22.20;1.00
43185;DHT22;28803;52.308;19.096;2023-07-31T15:16:44;22.10;1.00
43185;DHT22;28803;52.308;19.096;2023-07-31T15:19:11;21.90;1.00
43185;DHT22;28803;52.308;19.096;2023-07-31T15:21:39;22.00;42.10
43185;DHT22;28803;52.308;19.096;2023-07-31T15:24:06;22.00;4.30
43185;DHT22;28803;52.308;19.096;2023-07-31T15:26:35;22.40;1.00
43185;DHT22;28803;52.308;19.096;2023-07-31T15:29:07;22.40;1.00
43185;DHT22;28803;52.308;19.096;2023-07-31T15:31:43;22.70;1.00
43185;DHT22;28803;52.308;19.096;2023-07-31T15:34:10;22.90;1.00
43185;DHT22;28803;52.308;19.096;2023-07-31T15:36:37;23.00;1.00
43185;DHT22;28803;52.308;19.096;2023-07-31T15:39:05;23.00;1.00
43185;DHT22;28803;52.308;19.096;2023-07-31T15:41:36;22.90;1.00